M I D A S
Marine Information and Data Acquisition System
Tripno 999 of the Zeeleeuw from 2005-07-19 09:09:39 to 2005-07-19 12:50:50
Back to CruiseResearch ActivitiesStationsMapUnderway DataData graphs

EquipmentUnitsComment
TimeDGPSUTC
LatitudeDGPSDM.mWGS84
LongitudeDGPSDM.mWGS84
TemperatureSBE03/SBE38deg celciusITS90
ConductivitySBE21S/mITS90
SalinitySBE21 Practical Salinity Units
ChlorophylAChelsea fluorimeterg/lCalibrated in Aceton
Missing or incorrect values are displayed as -999
Sea surface data collected by the RV Zeeleeuw from 2005-07-19 09:11:16 to 2005-07-19 12:57:17
Time Latitude Longitude Temperature Conductivity Salinity ChlorophylA
2005-07-19 09:12:23 51°13.625 2°56.031 20.8762 3.242572 22.151842 7.511264
2005-07-19 09:13:23 51°13.648 2°55.93 20.8546 3.07895 20.889692 8.151742
2005-07-19 09:14:21 51°13.686 2°55.822 20.8705 2.914113 19.66918 8.522546
2005-07-19 09:15:23 51°13.748 2°55.717 20.7957 2.749012 18.444885 8.589965
2005-07-19 09:16:21 51°13.827 2°55.655 20.7442 2.064203 13.503675 8.219161
2005-07-19 09:17:22 51°13.91 2°55.644 20.6576 2.898117 19.601469 8.522546
2005-07-19 09:18:21 51°13.95 2°55.664 20.6682 2.364104 15.70425 8.623674
2005-07-19 09:19:21 51°13.949 2°55.628 20.6566 3.040738 20.701681 8.758512
2005-07-19 09:20:22 51°14.014 2°55.53 20.6969 3.58775 24.855156 8.82593
2005-07-19 09:21:22 51°14.148 2°55.407 20.793 2.749539 18.520281 8.623674
2005-07-19 09:22:22 51°14.279 2°55.236 20.8229 2.936847 19.874358 8.353999
2005-07-19 09:23:21 51°14.417 2°55.029 20.5699 2.882962 19.462274 8.893349
2005-07-19 09:24:21 51°14.624 2°54.921 20.3112 2.337405 15.534527 8.421418
2005-07-19 09:25:22 51°14.824 2°54.821 20.0975 3.879131 27.27152 8.589965
2005-07-19 09:26:22 51°15.01 2°54.729 20.0981 2.462302 16.623305 8.084324
2005-07-19 09:27:22 51°15.195 2°54.639 20.1069 4.272264 30.560109 8.455127
2005-07-19 09:28:22 51°15.386 2°54.564 20.0187 4.246218 30.317649 8.522546
2005-07-19 09:29:22 51°15.58 2°54.491 19.9741 3.62358 25.491352 7.882067
2005-07-19 09:30:21 51°15.76 2°54.434 19.9401 2.524448 17.138596 6.499982
2005-07-19 09:31:22 51°15.919 2°54.386 19.9315 3.133073 21.747229 5.792084
2005-07-19 09:32:22 51°16.045 2°54.358 19.9319 3.24574 22.617594 5.556118
2005-07-19 09:33:22 51°16.133 2°54.36 19.9244 3.664781 25.869858 5.084187
2005-07-19 09:34:22 51°16.202 2°54.359 19.917 3.294393 22.999865 4.443708
2005-07-19 09:35:21 51°16.245 2°54.369 19.9071 3.256797 22.707947 4.072905
2005-07-19 09:36:21 51°16.274 2°54.38 19.8993 3.155816 21.941032 4.039195
2005-07-19 09:37:22 51°16.28 2°54.378 19.8972 3.613045 25.48703 3.971777
2005-07-19 09:38:22 51°16.265 2°54.367 19.9061 3.591025 25.317518 4.511127
2005-07-19 09:39:21 51°16.262 2°54.342 19.8874 3.401085 23.836623 4.443708
2005-07-19 09:40:21 51°16.254 2°54.321 19.8725 3.04443 21.099841 4.409999
2005-07-19 09:41:22 51°16.248 2°54.319 19.861 3.171926 22.082577 4.308871
2005-07-19 09:42:21 51°16.256 2°54.317 19.86 4.001939 28.574054 4.679674
2005-07-19 09:43:21 51°16.258 2°54.318 19.8553 2.226425 14.979454 4.308871
2005-07-19 09:44:21 51°16.26 2°54.324 19.8576 3.470503 24.400049 4.544836
2005-07-19 09:45:22 51°16.263 2°54.338 19.8483 3.514643 24.742892 4.275161
2005-07-19 09:46:21 51°16.263 2°54.345 19.8491 3.606092 25.461507 4.376289
2005-07-19 09:47:22 51°16.265 2°54.35 19.8494 3.129916 21.771835 4.409999
2005-07-19 09:48:21 51°16.262 2°54.359 19.8514 3.078539 21.377154 4.645965
2005-07-19 09:49:21 51°16.264 2°54.366 19.8487 3.50769 24.692008 4.713383
2005-07-19 09:50:21 51°16.272 2°54.376 19.8559 3.166661 22.053521 4.713383
2005-07-19 09:51:22 51°16.281 2°54.384 19.8611 3.153921 21.95276 4.747093
2005-07-19 09:52:21 51°16.287 2°54.385 19.8214 2.945696 20.359112 4.645965
2005-07-19 09:53:21 51°16.298 2°54.372 19.8343 3.880296 27.577863 4.949349
2005-07-19 09:54:21 51°16.303 2°54.347 19.8456 4.287558 30.897744 5.050477
2005-07-19 09:55:21 51°16.295 2°54.316 19.8412 4.313604 31.106275 4.88193
2005-07-19 09:56:21 51°16.283 2°54.296 19.8425 4.132244 29.64641 5.4887
2005-07-19 09:57:22 51°16.279 2°54.272 19.8535 4.318033 31.138803 4.780802
2005-07-19 09:58:22 51°16.277 2°54.251 19.8537 4.319088 31.138951 4.544836
2005-07-19 09:59:22 51°16.268 2°54.245 19.853 4.319931 31.146784 4.983059
2005-07-19 10:00:22 51°16.261 2°54.252 19.8531 4.320775 31.151488 4.91564
2005-07-19 10:01:22 51°16.257 2°54.269 19.8557 4.318666 31.138683 5.050477
2005-07-19 10:02:22 51°16.258 2°54.295 19.8727 4.303059 31.01154 4.848221
2005-07-19 10:03:22 51°16.267 2°54.338 19.8673 4.313182 31.081544 4.88193
2005-07-19 10:04:22 51°16.28 2°54.394 19.862 4.320564 31.144057 5.353862
2005-07-19 10:05:22 51°16.3 2°54.456 19.8579 4.319193 31.137715 5.758375
2005-07-19 10:06:22 51°16.321 2°54.513 19.857 4.322146 31.159915 5.893212
2005-07-19 10:07:21 51°16.342 2°54.57 19.8654 4.313604 31.09274 5.724665
2005-07-19 10:08:22 51°16.361 2°54.627 19.8686 4.320775 31.145234 6.162888
2005-07-19 10:09:22 51°16.38 2°54.683 19.8667 4.3232 31.165273 5.657247
2005-07-19 10:10:22 51°16.378 2°54.738 19.8791 4.323306 31.165079 5.792084
2005-07-19 10:11:23 51°16.358 2°54.715 19.8783 4.312549 31.06658 5.117896
2005-07-19 10:12:21 51°16.397 2°54.667 19.8825 4.321196 31.136646 5.219024
2005-07-19 10:13:22 51°16.437 2°54.636 19.8753 4.323727 31.157005 4.578546
2005-07-19 10:14:22 51°16.475 2°54.61 19.8687 4.325836 31.17658 4.612255
2005-07-19 10:15:21 51°16.513 2°54.587 19.8676 4.328684 31.203144 4.544836
2005-07-19 10:16:22 51°16.548 2°54.566 19.8509 4.331426 31.230436 4.713383
2005-07-19 10:17:22 51°16.585 2°54.551 19.8504 4.334062 31.261076 4.91564
2005-07-19 10:18:21 51°16.62 2°54.54 19.8466 4.335855 31.277085 5.185315
2005-07-19 10:19:22 51°16.657 2°54.535 19.8387 4.338913 31.303814 4.983059
2005-07-19 10:20:22 51°16.693 2°54.527 19.8338 4.340601 31.323176 5.320153
2005-07-19 10:21:22 51°16.729 2°54.516 19.8333 4.341655 31.340071 6.162888
2005-07-19 10:22:22 51°16.766 2°54.508 19.8241 4.344292 31.358696 5.589828
2005-07-19 10:23:22 51°16.805 2°54.505 19.7914 4.345874 31.377228 5.960631
2005-07-19 10:24:22 51°16.832 2°54.49 19.7435 4.351991 31.461342 6.162888
2005-07-19 10:25:22 51°16.778 2°54.472 19.7643 4.353573 31.491021 7.443845
2005-07-19 10:26:22 51°16.643 2°54.404 19.8017 4.352729 31.463607 7.544973
2005-07-19 10:27:22 51°16.484 2°54.361 19.7709 4.345874 31.39406 7.17417
2005-07-19 10:28:22 51°16.36 2°54.325 19.7486 4.355365 31.497572 7.275298
2005-07-19 10:29:22 51°16.29 2°54.32 19.7769 4.353678 31.491344 7.477554
2005-07-19 10:30:21 51°16.258 2°54.321 19.7831 4.349776 31.436607 7.207879
2005-07-19 10:31:22 51°16.26 2°54.356 19.786 4.348827 31.428947 6.129178
2005-07-19 10:32:22 51°16.268 2°54.407 19.7823 4.349143 31.432555 6.938204
2005-07-19 10:33:21 51°16.282 2°54.467 19.7609 4.348932 31.434016 7.410136
2005-07-19 10:34:21 51°16.299 2°54.527 19.7477 4.347984 31.441123 8.151742
2005-07-19 10:35:22 51°16.316 2°54.585 19.7658 4.346929 31.436829 8.118033
2005-07-19 10:36:22 51°16.331 2°54.644 19.7719 4.346507 31.422345 7.848358
2005-07-19 10:37:22 51°16.316 2°54.693 19.8109 4.348405 31.427651 7.983195
2005-07-19 10:38:23 51°16.311 2°54.642 19.8188 4.349143 31.40885 7.207879
2005-07-19 10:39:22 51°16.383 2°54.499 19.8074 4.346295 31.379052 6.533691
2005-07-19 10:40:22 51°16.457 2°54.298 19.7923 4.349143 31.425702 6.230306
2005-07-19 10:41:22 51°16.534 2°54.097 19.7578 4.35294 31.461615 6.297725
2005-07-19 10:42:22 51°16.613 2°53.89 19.742 4.364646 31.590569 6.668529
2005-07-19 10:43:22 51°16.691 2°53.689 19.7246 4.370025 31.640432 7.342717
2005-07-19 10:44:22 51°16.773 2°53.491 19.7066 4.377196 31.706962 7.612392
2005-07-19 10:45:22 51°16.867 2°53.303 19.6045 4.385317 31.794595 8.118033
2005-07-19 10:46:22 51°16.957 2°53.105 19.453 4.407465 32.071758 8.589965
2005-07-19 10:47:22 51°17.052 2°52.902 19.3784 4.423287 32.304134 9.769794
2005-07-19 10:48:21 51°17.163 2°52.714 19.3453 4.425502 32.36887 10.174306
2005-07-19 10:49:22 51°17.279 2°52.534 19.3367 4.427401 32.3987 11.387845
2005-07-19 10:50:22 51°17.397 2°52.349 19.3253 4.429827 32.427914 11.623811
2005-07-19 10:51:22 51°17.511 2°52.163 19.2924 4.429932 32.444221 11.960905
2005-07-19 10:52:22 51°17.627 2°51.977 19.2464 4.429089 32.466584 11.151879
2005-07-19 10:53:22 51°17.748 2°51.797 19.1892 4.42909 32.506442 11.65752
2005-07-19 10:54:22 51°17.882 2°51.635 19.1719 4.431305 32.559046 11.421554
2005-07-19 10:55:22 51°18.013 2°51.473 19.1949 4.430778 32.564723 12.062033
2005-07-19 10:56:22 51°18.149 2°51.315 19.1913 4.425821 32.509001 12.500255
2005-07-19 10:57:21 51°18.28 2°51.157 19.1988 4.423923 32.497295 12.095742
2005-07-19 10:58:21 51°18.414 2°50.994 19.1741 4.418333 32.445855 12.129452
2005-07-19 10:59:21 51°18.531 2°50.918 19.1334 4.413377 32.424539 12.567674
2005-07-19 11:00:22 51°18.573 2°50.949 19.1094 4.410319 32.432666 12.196871
2005-07-19 11:01:23 51°18.578 2°50.986 19.1083 4.409476 32.437381 12.466546
2005-07-19 11:02:21 51°18.593 2°51.028 19.1052 4.409476 32.441267 14.050888
2005-07-19 11:03:23 51°18.611 2°51.074 19.1213 4.409687 32.446333 15.331845
2005-07-19 11:04:22 51°18.632 2°51.117 19.1341 4.411268 32.439914 15.264426
2005-07-19 11:05:21 51°18.651 2°51.156 19.1408 4.411901 32.439568 14.320563
2005-07-19 11:06:21 51°18.666 2°51.2 19.1304 4.412744 32.44262 13.814922
2005-07-19 11:07:21 51°18.678 2°51.246 19.123 4.410952 32.439532 12.80364
2005-07-19 11:08:21 51°18.69 2°51.293 19.1201 4.410214 32.436792 12.736221
2005-07-19 11:09:21 51°18.711 2°51.34 19.1208 4.409054 32.428918 12.533965
2005-07-19 11:10:22 51°18.745 2°51.386 19.1203 4.409792 32.432769 12.432836
2005-07-19 11:11:21 51°18.786 2°51.443 19.1111 4.408315 32.426732 12.80364
2005-07-19 11:12:22 51°18.834 2°51.501 19.1068 4.407577 32.4251 13.140734
2005-07-19 11:13:22 51°18.883 2°51.566 19.1131 4.40589 32.415107 14.758785
2005-07-19 11:14:22 51°18.935 2°51.625 19.1119 4.407683 32.425967 13.91605
2005-07-19 11:15:22 51°18.988 2°51.688 19.1043 4.408843 32.434953 13.680084
2005-07-19 11:16:22 51°19.041 2°51.747 19.0983 4.408948 32.440261 13.848631
2005-07-19 11:17:22 51°19.093 2°51.808 19.1002 4.409265 32.447306 13.545247
2005-07-19 11:18:22 51°19.144 2°51.871 19.092 4.409265 32.448973 13.174443
2005-07-19 11:19:22 51°19.194 2°51.942 19.0937 4.408105 32.44665 12.80364
2005-07-19 11:20:22 51°19.249 2°52.007 19.0908 4.408949 32.450258 12.80364
2005-07-19 11:21:21 51°19.302 2°52.071 19.0921 4.408949 32.450258 12.365418
2005-07-19 11:22:22 51°19.357 2°52.137 19.0918 4.409159 32.453105 11.893486
2005-07-19 11:23:21 51°19.408 2°52.206 19.0976 4.409898 32.456401 12.062033
2005-07-19 11:24:22 51°19.462 2°52.272 19.0887 4.41053 32.461051 11.253007
2005-07-19 11:25:22 51°19.513 2°52.341 19.0991 4.410109 32.462027 12.331708
2005-07-19 11:26:22 51°19.56 2°52.442 19.0844 4.410952 32.46619 11.792358
2005-07-19 11:27:22 51°19.523 2°52.546 19.0959 4.410425 32.465186 11.488973
2005-07-19 11:28:21 51°19.457 2°52.463 19.0862 4.408316 32.438388 12.028324
2005-07-19 11:29:22 51°19.36 2°52.273 19.0997 4.40589 32.422321 11.421554
2005-07-19 11:30:22 51°19.244 2°52.09 19.1036 4.407683 32.429297 11.65752
2005-07-19 11:31:22 51°19.118 2°51.897 19.0961 4.408421 32.441476 12.264289
2005-07-19 11:32:21 51°18.99 2°51.708 19.1027 4.408527 32.442899 13.005896
2005-07-19 11:33:21 51°18.858 2°51.514 19.1055 4.408948 32.43693 13.039606
2005-07-19 11:34:21 51°18.727 2°51.319 19.1097 4.409054 32.436687 13.814922
2005-07-19 11:35:23 51°18.591 2°51.12 19.1103 4.412218 32.45882 14.320563
2005-07-19 11:36:22 51°18.504 2°50.979 19.0961 4.41612 32.498143 14.017178
2005-07-19 11:37:22 51°18.494 2°50.97 19.0869 4.419495 32.528693 14.286853
2005-07-19 11:38:21 51°18.496 2°50.995 19.093 4.420128 32.540027 14.017178
2005-07-19 11:39:21 51°18.506 2°51.037 19.089 4.416542 32.513299 13.882341
2005-07-19 11:40:21 51°18.524 2°51.082 19.0864 4.419178 32.535 14.758785
2005-07-19 11:41:21 51°18.542 2°51.122 19.0864 4.420022 32.542502 16.275708
2005-07-19 11:42:23 51°18.558 2°51.166 19.0822 4.419917 32.54052 16.781349
2005-07-19 11:43:23 51°18.571 2°51.208 19.0876 4.420549 32.5474 18.500529
2005-07-19 11:44:22 51°18.583 2°51.25 19.0952 4.420655 32.544367 16.983606
2005-07-19 11:45:22 51°18.594 2°51.292 19.0995 4.421499 32.546297 16.579093
2005-07-19 11:46:22 51°18.606 2°51.335 19.1004 4.422131 32.549833 16.612802
2005-07-19 11:47:22 51°18.618 2°51.379 19.1057 4.422026 32.547851 15.399264
2005-07-19 11:48:22 51°18.63 2°51.423 19.1032 4.422237 32.549029 16.511674
2005-07-19 11:49:22 51°18.645 2°51.465 19.1025 4.421815 32.546115 16.612802
2005-07-19 11:50:21 51°18.659 2°51.508 19.1084 4.422237 32.546244 16.545383
2005-07-19 11:51:20 51°18.674 2°51.55 19.1145 4.421498 32.535715 15.871195
2005-07-19 11:52:22 51°18.69 2°51.593 19.1146 4.420549 32.524567 17.118443
2005-07-19 11:53:22 51°18.705 2°51.635 19.1197 4.422342 32.538759 16.275708
2005-07-19 11:54:22 51°18.722 2°51.68 19.1205 4.420444 32.523143 16.71393
2005-07-19 11:55:21 51°18.735 2°51.722 19.1197 4.416963 32.493406 16.275708
2005-07-19 11:56:20 51°18.749 2°51.765 19.1264 4.421604 32.528234 17.084734
2005-07-19 11:57:23 51°18.762 2°51.81 19.1282 4.421287 32.522294 16.579093
2005-07-19 11:58:22 51°18.776 2°51.855 19.1419 4.421498 32.521803 16.680221
2005-07-19 11:59:21 51°18.79 2°51.898 19.1355 4.422236 32.522312 16.275708
2005-07-19 12:00:21 51°18.802 2°51.939 19.1342 4.422025 32.52169 16.107161
2005-07-19 12:01:21 51°18.818 2°51.979 19.1372 4.422553 32.526026 16.612802
2005-07-19 12:02:22 51°18.834 2°52.022 19.139 4.422236 32.520088 16.646512
2005-07-19 12:03:21 51°18.852 2°52.061 19.143 4.422342 32.522624 16.646512
2005-07-19 12:04:22 51°18.87 2°52.1 19.1474 4.422658 32.520221 17.28699
2005-07-19 12:05:22 51°18.889 2°52.14 19.1553 4.422447 32.51404 17.185862
2005-07-19 12:06:22 51°18.906 2°52.179 19.1637 4.422763 32.512195 16.477965
2005-07-19 12:07:22 51°18.922 2°52.218 19.1607 4.422025 32.501684 17.455537
2005-07-19 12:08:22 51°18.939 2°52.257 19.1636 4.421287 32.494507 17.421828
2005-07-19 12:09:21 51°18.957 2°52.294 19.1676 4.420654 32.487088 16.241999
2005-07-19 12:10:21 51°18.974 2°52.332 19.1718 4.420232 32.483622 17.28699
2005-07-19 12:11:23 51°18.989 2°52.372 19.173 4.420126 32.480536 16.376836
2005-07-19 12:12:22 51°19.003 2°52.413 19.1746 4.412322 32.414217 17.118443
2005-07-19 12:13:22 51°19.017 2°52.454 19.1863 4.419599 32.470657 17.522956
2005-07-19 12:14:22 51°19.029 2°52.495 19.1874 4.419599 32.465112 17.489247
2005-07-19 12:15:22 51°19.041 2°52.539 19.1943 4.420021 32.463588 17.051024
2005-07-19 12:16:22 51°19.053 2°52.58 19.2026 4.420126 32.461128 17.522956
2005-07-19 12:17:21 51°19.064 2°52.622 19.2082 4.420864 32.463311 17.354409
2005-07-19 12:18:23 51°19.077 2°52.665 19.2083 4.421181 32.460922 17.455537
2005-07-19 12:19:22 51°19.088 2°52.707 19.2115 4.421708 32.461926 17.691503
2005-07-19 12:20:21 51°19.091 2°52.751 19.2237 4.42118 32.455383 17.758922
2005-07-19 12:21:22 51°18.982 2°52.716 19.2137 4.420969 32.442029 18.43311
2005-07-19 12:22:21 51°18.799 2°52.639 19.2036 4.425083 32.481868 16.949896
2005-07-19 12:23:22 51°18.604 2°52.558 19.1921 4.427403 32.513112 16.680221
2005-07-19 12:24:21 51°18.416 2°52.485 19.2112 4.438055 32.607266 16.410546
2005-07-19 12:25:22 51°18.221 2°52.412 19.2022 4.45398 32.729758 15.668939
2005-07-19 12:26:22 51°18.033 2°52.347 19.1933 4.429829 32.538027 15.63523
2005-07-19 12:27:21 51°17.839 2°52.323 19.2154 4.456301 32.756655 15.197007
2005-07-19 12:28:21 51°17.638 2°52.336 19.244 4.459675 32.761471 16.309418
2005-07-19 12:29:23 51°17.43 2°52.35 19.2793 4.461784 32.762596 14.859913
2005-07-19 12:30:23 51°17.228 2°52.415 19.3116 4.457143 32.692165 14.354272
2005-07-19 12:31:22 51°17.035 2°52.52 19.325 4.455244 32.657688 13.073315
2005-07-19 12:32:21 51°16.843 2°52.652 19.3477 4.4486 32.590473 13.444118
2005-07-19 12:33:22 51°16.648 2°52.791 19.3763 4.444803 32.543322 14.185725
2005-07-19 12:34:22 51°16.456 2°52.928 19.3849 4.437947 32.472858 12.871059
2005-07-19 12:35:23 51°16.258 2°53.063 19.4921 4.424447 32.332793 13.34299
2005-07-19 12:36:22 51°16.066 2°53.198 19.5854 4.415903 32.1855 14.48911
2005-07-19 12:37:22 51°15.873 2°53.346 19.6508 4.409891 32.07199 16.17458
2005-07-19 12:38:22 51°15.682 2°53.497 19.7234 4.398183 31.931074 15.837486
2005-07-19 12:39:23 51°15.488 2°53.651 19.7923 4.380043 31.720942 16.477965
2005-07-19 12:40:22 51°15.303 2°53.801 19.8674 4.365805 31.563903 15.938614
2005-07-19 12:41:22 51°15.111 2°53.954 19.8837 4.368863 31.529385 15.264426
2005-07-19 12:42:21 51°14.932 2°54.127 19.881 4.37751 31.59223 16.680221
2005-07-19 12:43:21 51°14.761 2°54.341 19.8616 4.370444 31.541609 17.219571
2005-07-19 12:44:22 51°14.6 2°54.586 19.9223 4.369706 31.549385 17.522956
2005-07-19 12:45:23 51°14.449 2°54.85 20.0119 4.360214 31.421312 17.725212
2005-07-19 12:46:22 51°14.329 2°55.135 20.2521 4.34566 31.219747 18.43311
2005-07-19 12:47:23 51°14.214 2°55.349 20.3257 4.15944 29.578284 15.904905
2005-07-19 12:48:21 51°14.072 2°55.465 20.5326 4.036404 28.535015 11.488973
2005-07-19 12:49:21 51°13.926 2°55.566 20.6704 3.913596 27.452908 9.39899
2005-07-19 12:50:21 51°13.813 2°55.642 20.677 3.83855 26.8078 8.320289
2005-07-19 12:51:22 51°13.729 2°55.746 21.1414 3.750654 26.074232 7.915777
2005-07-19 12:52:23 51°13.673 2°55.868 21.1676 3.417609 23.294073 7.679811
2005-07-19 12:53:22 51°13.641 2°55.98 21.0468 3.538017 24.236607 7.17417
2005-07-19 12:54:22 51°13.623 2°56.046 21.02 3.590696 24.683324 7.342717
2005-07-19 12:55:21 51°13.621 2°56.049 21.0008 3.590485 24.679728 6.735947
2005-07-19 12:56:22 51°13.622 2°56.051 20.9466 3.695222 25.512395 6.702238